This is the latest recevied weather packets stored in our database for station/object DB3LD. If no packets are shown the sender has not sent any weather packets the latest 10 day(s).
| Time | Temp. | Humidity | Pressure | Rain* | Wind** | Luminosity | Snow |
|---|---|---|---|---|---|---|---|
| 1778196612 | 5.56° C | 72% | 1019.6 hPa | 0 mm | - | 0 W/m² | - |
| 1778193612 | 6.11° C | 70% | 1019.5 hPa | 0 mm | - | 0 W/m² | - |
| 1778193012 | 6.11° C | 70% | 1019.4 hPa | 0 mm | - | 0 W/m² | - |
| 1778184013 | 10° C | 56% | 1018.7 hPa | 0 mm | - | 0 W/m² | - |
| 1778181613 | 11.67° C | 52% | 1018.6 hPa | 0 mm | - | 0 W/m² | - |
| 1778158813 | 15° C | 45% | 1016.7 hPa | 0 mm | - | 697 W/m² | - |
| 1778154612 | 15° C | 47% | 1016.5 hPa | 0 mm | - | 747 W/m² | - |
| 1778149811 | 15° C | 54% | 1016.4 hPa | 0 mm | - | 743 W/m² | - |
| 1778145615 | 13.33° C | 61% | 1015.9 hPa | 0 mm | - | 661 W/m² | - |
| 1778140814 | 11.67° C | 71% | 1015.3 hPa | 0 mm | - | 520 W/m² | - |
| 1778133612 | 9.44° C | 80% | 1014.6 hPa | 0 mm | - | 255 W/m² | - |
| 1778130011 | 7.22° C | 87% | 1014.2 hPa | 0 mm | - | 101 W/m² | - |
| 1778127011 | 5.56° C | 89% | 1013.7 hPa | 0 mm | - | 18 W/m² | - |
| 1778125215 | 5.56° C | 88% | 1013.4 hPa | 0 mm | - | 5 W/m² | - |
| 1778122215 | 6.11° C | 86% | 1013.1 hPa | 0 mm | - | 0 W/m² | - |
| 1778121015 | 6.67° C | 86% | 1013 hPa | 0 mm | - | 0 W/m² | - |
| 1778119814 | 6.67° C | 85% | 1012.9 hPa | 0 mm | - | 0 W/m² | - |
| 1778116214 | 7.78° C | 83% | 1012.5 hPa | 0 mm | - | 0 W/m² | - |
| 1778113813 | 8.33° C | 82% | 1012.4 hPa | 0 mm | - | 0 W/m² | - |
| 1778109612 | 8.33° C | 82% | 1012.2 hPa | 0 mm | - | 0 W/m² | - |
| 1778100615 | 9.44° C | 82% | 1011.5 hPa | 0 mm | - | 0 W/m² | - |
| 1778100014 | 9.44° C | 82% | 1011.3 hPa | 0 mm | - | 0 W/m² | - |
| 1778095213 | 10.56° C | 75% | 1010.7 hPa | 0 mm | - | 0 W/m² | - |
| 1778091012 | 11.67° C | 66% | 1010 hPa | 0 mm | - | 26 W/m² | - |
| 1778085611 | 12.78° C | 66% | 1009.1 hPa | 0 mm | - | 83 W/m² | - |
* Rain latest hour (hover to see other rain measurements)
** Current wind speed in m/s (hover to see current wind gust speed)